createdAt,value
2019-04-03T00:01:18.903Z,8.13
2019-04-03T00:03:47.692Z,9.13
2019-04-03T00:06:15.998Z,9.60
2019-04-03T00:08:44.388Z,8.28
2019-04-03T00:11:13.031Z,8.75
2019-04-03T00:13:42.464Z,8.35
2019-04-03T00:16:11.050Z,9.65
2019-04-03T00:18:39.521Z,8.08
2019-04-03T00:21:08.415Z,9.68
2019-04-03T00:23:37.206Z,8.80
2019-04-03T00:26:06.080Z,8.78
2019-04-03T00:28:34.512Z,8.33
2019-04-03T00:31:04.796Z,9.70
2019-04-03T00:33:33.371Z,9.88
2019-04-03T00:36:01.691Z,8.90
2019-04-03T00:38:32.624Z,9.05
2019-04-03T00:41:01.316Z,9.30
2019-04-03T00:43:29.669Z,8.73
2019-04-03T00:45:58.100Z,10.40
2019-04-03T00:48:27.198Z,10.23
2019-04-03T00:50:57.363Z,9.88
2019-04-03T00:53:27.655Z,9.25
2019-04-03T00:55:57.045Z,7.70
2019-04-03T00:58:55.408Z,9.28
2019-04-03T01:01:24.711Z,8.98
2019-04-03T01:03:55.162Z,9.50
2019-04-03T01:06:24.062Z,9.35
2019-04-03T01:08:52.607Z,9.78
2019-04-03T01:11:21.464Z,9.33
2019-04-03T01:13:49.894Z,9.85
2019-04-03T01:16:18.607Z,9.33
2019-04-03T01:18:46.944Z,9.40
2019-04-03T01:21:15.596Z,8.90
2019-04-03T01:23:43.953Z,9.48
2019-04-03T01:26:12.419Z,9.10
2019-04-03T01:28:41.949Z,10.88
2019-04-03T01:31:14.199Z,9.85
2019-04-03T01:33:41.926Z,9.45
2019-04-03T01:36:10.578Z,9.80
2019-04-03T01:38:40.943Z,10.05
2019-04-03T01:41:09.473Z,9.73
2019-04-03T01:43:38.323Z,10.35
2019-04-03T01:46:07.096Z,9.43
2019-04-03T01:48:36.061Z,8.80
2019-04-03T01:51:04.513Z,9.20
2019-04-03T01:53:33.259Z,9.23
2019-04-03T01:56:04.538Z,9.25
2019-04-03T02:01:03.309Z,9.73
2019-04-03T02:03:31.883Z,9.03
2019-04-03T02:06:02.062Z,10.10
2019-04-03T02:08:30.839Z,10.28
2019-04-03T02:10:59.790Z,9.43
2019-04-03T02:13:28.341Z,9.50
2019-04-03T02:15:56.926Z,9.98
2019-04-03T02:18:25.889Z,9.23
2019-04-03T02:20:57.328Z,8.60
2019-04-03T02:23:25.372Z,10.20
2019-04-03T02:25:54.036Z,9.03
2019-04-03T02:28:22.762Z,10.40
2019-04-03T02:30:51.260Z,10.25
2019-04-03T02:33:20.137Z,10.20
2019-04-03T02:35:48.823Z,10.00
2019-04-03T02:38:19.189Z,8.88
2019-04-03T02:40:49.544Z,9.38
2019-04-03T02:43:18.735Z,9.45
2019-04-03T02:45:47.111Z,9.25
2019-04-03T02:48:15.661Z,9.70
2019-04-03T02:50:47.045Z,8.60
2019-04-03T02:55:43.263Z,9.05
2019-04-03T02:58:12.248Z,10.03
2019-04-03T03:00:41.204Z,9.40
2019-04-03T03:03:09.920Z,8.73
2019-04-03T03:05:38.703Z,9.13
2019-04-03T03:08:09.147Z,9.03
2019-04-03T03:10:38.307Z,8.63
2019-04-03T03:13:07.178Z,9.13
2019-04-03T03:15:36.989Z,9.73
2019-04-03T03:18:05.428Z,9.78
2019-04-03T03:20:39.196Z,9.90
2019-04-03T03:23:06.902Z,9.20
2019-04-03T03:25:35.855Z,8.70
2019-04-03T03:28:04.691Z,9.25
2019-04-03T03:30:43.473Z,9.10
2019-04-03T03:33:24.112Z,8.88
2019-04-03T03:38:06.993Z,8.68
2019-04-03T03:40:37.265Z,8.65
2019-04-03T03:43:07.893Z,9.50
2019-04-03T03:45:37.123Z,8.90
2019-04-03T03:48:09.375Z,8.60
2019-04-03T03:50:36.962Z,9.13
2019-04-03T03:53:10.240Z,9.13
2019-04-03T03:55:37.599Z,8.15
2019-04-03T03:58:11.045Z,9.55
2019-04-03T04:00:37.732Z,8.70
2019-04-03T04:03:10.036Z,9.70
2019-04-03T04:05:37.636Z,8.75
2019-04-03T04:08:09.442Z,8.68
2019-04-03T04:10:38.210Z,8.85
2019-04-03T04:13:07.239Z,8.95
2019-04-03T04:15:36.553Z,7.83
2019-04-03T04:18:05.423Z,8.30
2019-04-03T04:20:36.657Z,8.08
2019-04-03T04:23:05.634Z,8.40
2019-04-03T04:25:35.506Z,9.18
2019-04-03T04:28:06.698Z,8.18
2019-04-03T04:30:35.798Z,9.00
2019-04-03T04:33:04.372Z,8.70
2019-04-03T04:35:33.099Z,8.70
2019-04-03T04:38:01.787Z,8.48
2019-04-03T04:40:31.310Z,9.95
2019-04-03T04:43:03.643Z,9.37
2019-04-03T04:45:34.461Z,8.80
2019-04-03T04:48:05.162Z,8.23
2019-04-03T04:50:33.926Z,8.48
2019-04-03T04:53:02.785Z,8.75
2019-04-03T04:55:34.441Z,10.05
2019-04-03T04:58:04.759Z,8.73
2019-04-03T05:03:02.164Z,9.15
2019-04-03T05:05:31.408Z,8.48
2019-04-03T05:08:01.994Z,8.50
2019-04-03T05:12:59.409Z,8.83
2019-04-03T05:15:28.363Z,8.50
2019-04-03T05:17:57.709Z,9.53
2019-04-03T05:20:26.907Z,6.90
2019-04-03T05:22:56.338Z,8.75
2019-04-03T05:25:24.917Z,9.03
2019-04-03T05:27:53.341Z,10.00
2019-04-03T05:30:31.552Z,10.18
2019-04-03T05:33:00.041Z,8.70
2019-04-03T05:35:30.517Z,8.88
2019-04-03T05:37:59.467Z,9.65
2019-04-03T05:40:28.157Z,8.43
2019-04-03T05:42:59.251Z,10.35
2019-04-03T05:45:27.348Z,8.83
2019-04-03T05:47:58.155Z,9.50
2019-04-03T05:50:27.251Z,9.90
2019-04-03T05:52:56.317Z,8.20
2019-04-03T05:55:25.000Z,9.33
2019-04-03T05:57:53.560Z,9.55
2019-04-03T06:00:22.227Z,9.70
2019-04-03T06:02:52.686Z,9.90
2019-04-03T06:05:21.219Z,9.33
2019-04-03T06:07:49.905Z,10.43
2019-04-03T06:10:18.597Z,10.45
2019-04-03T06:12:47.574Z,9.73
2019-04-03T06:15:16.278Z,8.68
2019-04-03T06:17:44.949Z,9.80
2019-04-03T06:20:13.609Z,9.13
2019-04-03T06:22:43.211Z,9.85
2019-04-03T06:25:13.920Z,10.58
2019-04-03T06:27:45.515Z,10.13
2019-04-03T06:30:14.388Z,10.18
2019-04-03T06:32:43.307Z,9.08
2019-04-03T06:35:13.646Z,10.70
2019-04-03T06:37:43.347Z,9.95
2019-04-03T06:40:12.645Z,9.35
2019-04-03T06:42:44.126Z,12.00
2019-04-03T06:45:15.416Z,9.95
2019-04-03T06:47:42.668Z,10.15
2019-04-03T06:50:16.825Z,8.55
2019-04-03T06:52:44.166Z,10.08
2019-04-03T06:55:13.004Z,11.95
2019-04-03T06:57:41.939Z,10.23
2019-04-03T07:00:12.354Z,11.97
2019-04-03T07:02:41.222Z,9.68
2019-04-03T07:05:10.978Z,10.10
2019-04-03T07:07:39.866Z,10.63
2019-04-03T07:10:09.730Z,9.20
2019-04-03T07:12:38.681Z,10.15
2019-04-03T07:15:07.894Z,10.70
2019-04-03T07:17:36.472Z,11.03
2019-04-03T07:20:13.447Z,10.28
2019-04-03T07:22:36.369Z,10.95
2019-04-03T07:25:05.996Z,11.22
2019-04-03T07:27:36.600Z,10.40
2019-04-03T07:30:07.832Z,11.30
2019-04-03T07:32:36.950Z,9.95
2019-04-03T07:35:09.414Z,10.63
2019-04-03T07:37:37.304Z,11.63
2019-04-03T07:40:06.944Z,10.75
2019-04-03T07:42:36.260Z,10.85
2019-04-03T07:45:05.852Z,10.45
2019-04-03T07:47:35.733Z,11.30
2019-04-03T07:50:06.697Z,10.07
2019-04-03T07:52:37.600Z,10.53
2019-04-03T07:55:07.861Z,10.93
2019-04-03T07:57:37.231Z,11.05
2019-04-03T08:00:07.960Z,10.28
2019-04-03T08:02:36.579Z,10.43
2019-04-03T08:05:08.238Z,10.75
2019-04-03T08:07:37.395Z,10.30
2019-04-03T08:10:06.674Z,11.15
2019-04-03T08:12:36.089Z,11.33
2019-04-03T08:15:06.925Z,10.88
2019-04-03T08:17:35.999Z,11.50
2019-04-03T08:20:05.964Z,10.95
2019-04-03T08:22:34.974Z,9.78
2019-04-03T08:25:04.926Z,9.88
2019-04-03T08:27:33.688Z,10.10
2019-04-03T08:30:03.554Z,11.53
2019-04-03T08:32:32.332Z,10.08
2019-04-03T08:35:03.785Z,10.70
2019-04-03T08:37:33.238Z,9.65
2019-04-03T08:40:02.341Z,10.80
2019-04-03T08:42:32.647Z,9.53
2019-04-03T08:45:05.723Z,10.60
2019-04-03T08:47:33.194Z,11.40
2019-04-03T08:50:02.682Z,10.72
2019-04-03T08:52:31.295Z,10.58
2019-04-03T08:55:02.250Z,10.20
2019-04-03T08:57:31.059Z,9.93
2019-04-03T09:00:01.078Z,9.63
2019-04-03T09:02:30.254Z,10.45
2019-04-03T09:04:59.002Z,9.43
2019-04-03T09:07:27.994Z,10.48
2019-04-03T09:10:00.206Z,9.75
2019-04-03T09:12:27.613Z,10.60
2019-04-03T09:14:57.807Z,10.43
2019-04-03T09:17:27.222Z,11.38
2019-04-03T09:19:57.276Z,10.88
2019-04-03T09:22:26.534Z,10.38
2019-04-03T09:24:55.500Z,10.05
2019-04-03T09:27:24.673Z,10.32
2019-04-03T09:29:53.975Z,10.23
2019-04-03T09:32:23.456Z,10.13
2019-04-03T09:34:52.965Z,9.65
2019-04-03T09:37:21.940Z,10.85
2019-04-03T09:39:50.773Z,9.33
2019-04-03T09:42:21.213Z,9.95
2019-04-03T09:44:50.191Z,9.95
2019-04-03T09:47:19.574Z,9.28
2019-04-03T09:49:48.468Z,10.32
2019-04-03T09:52:17.750Z,9.93
2019-04-03T09:54:46.779Z,9.43
2019-04-03T09:57:17.412Z,9.30
2019-04-03T09:59:47.316Z,9.65
2019-04-03T10:02:18.733Z,9.68
2019-04-03T10:04:47.048Z,9.45
2019-04-03T10:07:15.671Z,8.15
2019-04-03T10:09:44.928Z,8.75
2019-04-03T10:12:14.054Z,7.97
2019-04-03T10:14:42.777Z,10.05
2019-04-03T10:17:14.419Z,9.30
2019-04-03T10:19:45.597Z,9.53
2019-04-03T10:22:14.038Z,8.15
2019-04-03T10:24:42.980Z,9.33
2019-04-03T10:27:12.010Z,8.13
2019-04-03T10:29:40.950Z,8.13
2019-04-03T10:32:10.187Z,8.38
2019-04-03T10:34:39.911Z,9.38
2019-04-03T10:37:08.791Z,8.83
2019-04-03T10:39:41.976Z,8.40
2019-04-03T10:42:08.634Z,7.97
2019-04-03T10:44:37.387Z,7.62
2019-04-03T10:47:06.808Z,8.20
2019-04-03T10:49:35.396Z,8.48
2019-04-03T10:52:05.351Z,8.20
2019-04-03T10:54:33.978Z,8.13
2019-04-03T10:57:03.496Z,8.25
2019-04-03T10:59:34.057Z,8.20
2019-04-03T11:02:03.102Z,9.05
2019-04-03T11:04:31.936Z,8.00
2019-04-03T11:07:04.737Z,7.85
2019-04-03T11:09:33.662Z,8.03
2019-04-03T11:12:02.748Z,8.15
2019-04-03T11:14:31.306Z,7.83
2019-04-03T11:17:00.555Z,9.43
2019-04-03T11:19:30.454Z,10.28
2019-04-03T11:21:59.794Z,8.38
2019-04-03T11:24:29.254Z,7.90
2019-04-03T11:26:58.289Z,8.53
2019-04-03T11:29:27.272Z,8.75
2019-04-03T11:31:56.074Z,7.55
2019-04-03T11:34:24.953Z,7.70
2019-04-03T11:36:54.081Z,8.38
2019-04-03T11:39:23.191Z,8.10
2019-04-03T11:41:54.530Z,7.40
2019-04-03T11:46:51.176Z,8.83
2019-04-03T11:49:20.872Z,7.90
2019-04-03T11:54:18.996Z,7.95
2019-04-03T11:56:48.009Z,7.58
2019-04-03T11:59:17.350Z,8.15
2019-04-03T12:01:48.080Z,8.35
2019-04-03T12:04:16.989Z,7.67
2019-04-03T12:06:45.751Z,8.85
2019-04-03T12:09:15.082Z,8.28
2019-04-03T12:11:43.839Z,7.85
2019-04-03T12:14:12.870Z,7.80
2019-04-03T12:16:42.415Z,8.15
2019-04-03T12:19:11.733Z,8.13
2019-04-03T12:21:41.258Z,8.25
2019-04-03T12:24:09.765Z,8.70
2019-04-03T12:26:38.736Z,7.95
2019-04-03T12:29:08.362Z,9.23
2019-04-03T12:31:37.008Z,7.57
2019-04-03T12:34:06.779Z,7.97
2019-04-03T12:36:35.824Z,8.18
2019-04-03T12:39:13.378Z,8.15
2019-04-03T12:41:43.172Z,7.83
2019-04-03T12:44:14.047Z,8.33
2019-04-03T12:46:42.796Z,9.15
2019-04-03T12:49:11.581Z,8.10
2019-04-03T12:51:41.196Z,8.08
2019-04-03T12:54:12.446Z,7.33
2019-04-03T12:56:40.573Z,8.90
2019-04-03T12:59:10.052Z,7.70
2019-04-03T13:01:38.971Z,7.62
2019-04-03T13:04:09.475Z,8.93
2019-04-03T13:06:40.574Z,8.38
2019-04-03T13:09:12.865Z,7.03
2019-04-03T13:11:41.417Z,7.62
2019-04-03T13:14:22.101Z,8.90
2019-04-03T13:16:41.750Z,8.40
2019-04-03T13:21:42.841Z,9.08
2019-04-03T13:24:12.666Z,8.83
2019-04-03T13:26:41.240Z,8.27
2019-04-03T13:29:10.675Z,8.05
2019-04-03T13:31:39.610Z,8.37
2019-04-03T13:34:11.197Z,8.70
2019-04-03T13:36:39.411Z,7.90
2019-04-03T13:39:08.703Z,7.78
2019-04-03T13:41:37.818Z,7.58
2019-04-03T13:44:06.935Z,8.20
2019-04-03T13:46:36.525Z,8.08
2019-04-03T13:49:06.067Z,8.40
2019-04-03T13:51:35.150Z,7.30
2019-04-03T13:54:06.983Z,8.28
2019-04-03T13:56:35.250Z,8.78
2019-04-03T13:59:04.715Z,7.22
2019-04-03T14:01:33.754Z,8.85
2019-04-03T14:04:02.625Z,9.05
2019-04-03T14:06:35.390Z,8.03
2019-04-03T14:11:35.489Z,8.63
2019-04-03T14:14:04.437Z,7.37
2019-04-03T14:16:34.786Z,9.28
2019-04-03T14:19:04.851Z,8.58
2019-04-03T14:21:35.264Z,7.97
2019-04-03T14:24:07.060Z,7.62
2019-04-03T14:26:35.507Z,7.62
2019-04-03T14:29:07.100Z,8.13
2019-04-03T14:31:37.675Z,8.95
2019-04-03T14:34:06.293Z,8.85
2019-04-03T14:36:34.992Z,8.40
2019-04-03T14:39:08.369Z,9.00
2019-04-03T14:41:37.326Z,9.78
2019-04-03T14:44:07.547Z,9.33
2019-04-03T14:49:04.821Z,9.53
2019-04-03T14:51:34.183Z,9.75
2019-04-03T14:54:03.131Z,9.33
2019-04-03T14:56:33.236Z,9.23
2019-04-03T14:59:02.859Z,9.65
2019-04-03T15:01:31.264Z,8.35
2019-04-03T15:04:01.496Z,8.95
2019-04-03T15:06:30.492Z,9.08
2019-04-03T15:09:01.826Z,9.13
2019-04-03T15:11:30.816Z,10.50
2019-04-03T15:13:59.836Z,8.35
2019-04-03T15:19:02.708Z,8.88
2019-04-03T15:21:31.856Z,8.70
2019-04-03T15:24:02.418Z,8.58
2019-04-03T15:26:31.482Z,8.08
2019-04-03T15:29:02.168Z,8.25
2019-04-03T15:31:31.173Z,8.30
2019-04-03T15:34:00.491Z,8.05
2019-04-03T15:36:30.485Z,7.85
2019-04-03T15:38:59.876Z,8.55
2019-04-03T15:41:33.044Z,8.50
2019-04-03T15:46:30.101Z,8.33
2019-04-03T15:51:29.801Z,7.87
2019-04-03T15:53:59.719Z,7.87
2019-04-03T15:56:29.248Z,8.20
2019-04-03T15:58:59.207Z,8.43
2019-04-03T16:01:28.067Z,6.92
2019-04-03T16:03:59.114Z,9.00
2019-04-03T16:06:27.300Z,8.20
2019-04-03T16:08:55.907Z,7.78
2019-04-03T16:11:28.549Z,7.75
2019-04-03T16:13:57.129Z,7.45
2019-04-03T16:16:27.344Z,8.05
2019-04-03T16:18:57.087Z,9.28
2019-04-03T16:21:28.106Z,6.58
2019-04-03T16:23:57.228Z,7.50
2019-04-03T16:26:25.741Z,8.18
2019-04-03T16:28:56.520Z,8.28
2019-04-03T16:31:25.204Z,9.58
2019-04-03T16:33:53.846Z,8.98
2019-04-03T16:36:22.291Z,10.25
2019-04-03T16:38:50.968Z,10.00
2019-04-03T16:41:19.949Z,10.28
2019-04-03T16:43:49.269Z,9.98
2019-04-03T16:46:17.954Z,10.32
2019-04-03T16:48:49.060Z,9.55
2019-04-03T16:51:18.164Z,9.55
2019-04-03T16:53:47.198Z,10.37
2019-04-03T16:56:17.544Z,10.40
2019-04-03T16:58:46.396Z,9.70
2019-04-03T17:01:15.146Z,9.78
2019-04-03T17:03:43.673Z,9.33
2019-04-03T17:06:15.349Z,10.35
2019-04-03T17:08:43.212Z,8.65
2019-04-03T17:11:12.707Z,9.43
2019-04-03T17:13:43.415Z,8.13
2019-04-03T17:16:14.469Z,9.18
2019-04-03T17:18:42.911Z,8.00
2019-04-03T17:21:11.887Z,9.40
2019-04-03T17:23:43.316Z,8.20
2019-04-03T17:26:11.305Z,9.48
2019-04-03T17:28:41.640Z,9.60
2019-04-03T17:31:10.103Z,9.50
2019-04-03T17:33:38.687Z,8.60
2019-04-03T17:36:08.035Z,8.38
2019-04-03T17:38:36.817Z,9.35
2019-04-03T17:41:07.050Z,9.18
2019-04-03T17:43:35.869Z,9.63
2019-04-03T17:46:04.722Z,8.73
2019-04-03T17:48:33.229Z,9.05
2019-04-03T17:51:02.652Z,8.65
2019-04-03T17:53:32.107Z,8.95
2019-04-03T17:56:01.149Z,8.63
2019-04-03T17:58:29.898Z,9.08
2019-04-03T18:00:59.149Z,8.15
2019-04-03T18:03:27.823Z,8.70
2019-04-03T18:05:57.536Z,8.18
2019-04-03T18:08:26.192Z,9.20
2019-04-03T18:10:54.759Z,8.83
2019-04-03T18:13:24.049Z,9.13
2019-04-03T18:15:54.616Z,9.75
2019-04-03T18:18:23.050Z,8.33
2019-04-03T18:20:51.687Z,9.85
2019-04-03T18:23:21.737Z,7.95
2019-04-03T18:25:51.136Z,9.05
2019-04-03T18:28:21.086Z,9.05
2019-04-03T18:30:50.092Z,9.35
2019-04-03T18:33:18.941Z,9.53
2019-04-03T18:35:47.413Z,10.15
2019-04-03T18:38:15.937Z,9.80
2019-04-03T18:40:46.321Z,10.82
2019-04-03T18:43:15.144Z,11.20
2019-04-03T18:45:43.856Z,11.68
2019-04-03T18:48:16.303Z,11.20
2019-04-03T18:50:43.734Z,13.08
2019-04-03T18:53:12.814Z,11.68
2019-04-03T18:55:44.599Z,13.00
2019-04-03T18:58:12.474Z,13.13
2019-04-03T19:00:41.429Z,12.47
2019-04-03T19:03:10.177Z,13.32
2019-04-03T19:05:40.958Z,14.87
2019-04-03T19:08:13.358Z,14.47
2019-04-03T19:10:40.445Z,14.65
2019-04-03T19:13:08.945Z,13.53
2019-04-03T19:15:38.943Z,13.93
2019-04-03T19:18:19.441Z,13.75
2019-04-03T19:20:40.383Z,14.33
2019-04-03T19:23:11.002Z,14.23
2019-04-03T19:28:08.414Z,14.18
2019-04-03T19:30:38.011Z,13.68
2019-04-03T19:33:06.915Z,13.95
2019-04-03T19:35:35.718Z,14.95
2019-04-03T19:38:05.028Z,15.18
2019-04-03T19:40:33.944Z,13.85
2019-04-03T19:43:02.892Z,14.00
2019-04-03T19:45:31.313Z,14.15
2019-04-03T19:48:00.089Z,14.40
2019-04-03T19:50:31.830Z,14.87
2019-04-03T19:53:01.617Z,15.80
2019-04-03T19:55:31.309Z,13.58
2019-04-03T19:58:00.016Z,14.23
2019-04-03T20:00:29.907Z,15.68
2019-04-03T20:02:58.615Z,14.93
2019-04-03T20:05:26.925Z,13.35
2019-04-03T20:07:58.715Z,14.10
2019-04-03T20:10:26.203Z,14.05
2019-04-03T20:12:55.132Z,14.13
2019-04-03T20:15:23.900Z,13.80
2019-04-03T20:17:54.535Z,13.00
2019-04-03T20:20:24.616Z,14.80
2019-04-03T20:22:53.606Z,14.13
2019-04-03T20:25:22.264Z,13.98
2019-04-03T20:27:52.249Z,12.45
2019-04-03T20:30:21.517Z,12.37
2019-04-03T20:32:50.493Z,12.60
2019-04-03T20:35:18.927Z,15.35
2019-04-03T20:37:47.509Z,13.50
2019-04-03T20:40:16.320Z,12.95
2019-04-03T20:42:44.904Z,12.18
2019-04-03T20:45:13.904Z,11.85
2019-04-03T20:47:42.627Z,13.85
2019-04-03T20:50:11.768Z,11.85
2019-04-03T20:52:40.272Z,12.65
2019-04-03T20:55:08.768Z,12.88
2019-04-03T20:57:37.369Z,11.15
2019-04-03T21:00:11.517Z,13.85
2019-04-03T21:02:41.936Z,12.00
2019-04-03T21:05:11.107Z,12.05
2019-04-03T21:07:39.472Z,13.18
2019-04-03T21:10:08.305Z,12.58
2019-04-03T21:12:37.001Z,12.10
2019-04-03T21:15:08.691Z,14.23
2019-04-03T21:17:36.694Z,12.05
2019-04-03T21:20:05.565Z,13.05
2019-04-03T21:25:05.433Z,12.68
2019-04-03T21:27:35.130Z,12.50
2019-04-03T21:30:04.611Z,11.73
2019-04-03T21:32:33.145Z,12.93
2019-04-03T21:35:03.907Z,12.68
2019-04-03T21:40:04.683Z,12.88
2019-04-03T21:42:32.305Z,12.65
2019-04-03T21:45:02.750Z,12.23
2019-04-03T21:47:32.926Z,12.07
2019-04-03T21:50:03.857Z,13.10
2019-04-03T21:52:32.752Z,13.50
2019-04-03T21:55:04.589Z,13.45
2019-04-03T21:57:31.932Z,12.37
2019-04-03T22:00:01.974Z,13.20
2019-04-03T22:02:30.757Z,11.53
2019-04-03T22:04:59.187Z,13.03
2019-04-03T22:07:28.574Z,12.28
2019-04-03T22:09:57.520Z,13.00
2019-04-03T22:12:25.998Z,13.00
2019-04-03T22:14:54.555Z,11.60
2019-04-03T22:17:23.260Z,12.20
2019-04-03T22:19:51.976Z,13.70
2019-04-03T22:22:20.691Z,12.85
2019-04-03T22:24:51.250Z,11.95
2019-04-03T22:27:20.171Z,11.57
2019-04-03T22:29:50.665Z,13.13
2019-04-03T22:32:19.125Z,12.30
2019-04-03T22:34:47.460Z,12.37
2019-04-03T22:37:15.833Z,12.45
2019-04-03T22:39:44.604Z,11.57
2019-04-03T22:42:15.076Z,13.22
2019-04-03T22:44:44.164Z,12.07
2019-04-03T22:47:12.750Z,12.25
2019-04-03T22:49:41.634Z,12.50
2019-04-03T22:52:10.392Z,13.03
2019-04-03T22:54:39.307Z,12.47
2019-04-03T22:57:07.901Z,11.70
2019-04-03T22:59:36.839Z,12.53
2019-04-03T23:02:05.634Z,14.83
2019-04-03T23:04:34.588Z,13.35
2019-04-03T23:07:03.516Z,14.30
2019-04-03T23:09:32.485Z,12.63
2019-04-03T23:12:03.062Z,13.03
2019-04-03T23:14:32.328Z,14.03
2019-04-03T23:17:01.516Z,15.45
2019-04-03T23:19:32.349Z,14.25
2019-04-03T23:22:02.784Z,13.62
2019-04-03T23:24:31.671Z,14.70
2019-04-03T23:29:32.127Z,13.78
2019-04-03T23:32:01.262Z,14.35
2019-04-03T23:34:30.086Z,13.50
2019-04-03T23:36:59.134Z,13.60
2019-04-03T23:39:28.385Z,14.95
2019-04-03T23:41:57.527Z,13.90
2019-04-03T23:44:26.419Z,13.88
2019-04-03T23:46:55.415Z,15.60
2019-04-03T23:49:24.055Z,13.45
2019-04-03T23:51:52.792Z,13.40
2019-04-03T23:54:21.746Z,13.88
2019-04-03T23:56:50.769Z,13.45
2019-04-03T23:59:19.412Z,14.07
